Sunday, July 22, 2018, 2:19 AM EDT
Back to Local

KAGC, Pittsburgh Allegheny Cty.

Location: West Mifflin, PA, United States Lat: 40.35
Local Time: 2:19 AM EDT ( 6:19 GMT) Lon: -79.917
Time Zone: US/Eastern Elev: 1253 ft

Show me the last for .
Show Decoded

2018-07-22 01:53 METAR KAGC 220553Z 06004KT 10SM CLR 17/14 A2978 RMK AO2 SLP079 T01670144 10217
                 20167 58016 =
2018-07-22 00:53 METAR KAGC 220453Z 06005KT 10SM CLR 17/15 A2979 RMK AO2 SLP086 T01720150
                 402610172 =
2018-07-21 23:53 METAR KAGC 220353Z 07006KT 10SM SCT120 18/15 A2981 RMK AO2 SLP090 T01780150 =
2018-07-21 22:53 METAR KAGC 220253Z 07007G15KT 10SM CLR 18/15 A2982 RMK AO2 SLP095 T01830150
                 58002 =
2018-07-21 21:53 METAR KAGC 220153Z 09009KT 10SM BKN090 BKN120 19/16 A2984 RMK AO2 SLP100
                 T01940156 =
2018-07-21 20:53 METAR KAGC 220053Z 10007G17KT 10SM FEW027 20/16 A2984 RMK AO2 SLP100 T02000156 =
2018-07-21 19:53 METAR KAGC 212353Z 11012G20KT 10SM SCT030 SCT110 22/16 A2983 RMK AO2 SLP098
                 T02170161 10261 20217 56002 =
2018-07-21 18:53 METAR KAGC 212253Z 10012G20KT 10SM SCT030 SCT110 23/17 A2983 RMK AO2 SLP098
                 T02280172 =
2018-07-21 17:53 METAR KAGC 212153Z 12009G19KT 10SM FEW031 BKN110 23/17 A2983 RMK AO2 SLP097
                 T02330172 =
2018-07-21 16:53 METAR KAGC 212053Z 08010G17KT 10SM OVC110 24/17 A2984 RMK AO2 SLP099 T02390172
                 55010 =
2018-07-21 15:53 METAR KAGC 211953Z 11009KT 10SM SCT120 24/18 A2984 RMK AO2 SLP099 T02440178 =
2018-07-21 14:53 METAR KAGC 211853Z 13010G15KT 10SM FEW060 26/18 A2985 RMK AO2 SLP104 T02610183 =
2018-07-21 13:53 METAR KAGC 211753Z 11010KT 10SM BKN060 24/19 A2987 RMK AO2 SLP109 60003
                 T02440189 10244 20206 58005 =
2018-07-21 12:53 METAR KAGC 211653Z 12006KT 10SM OVC100 22/19 A2988 RMK AO2 RAE32 SLP115 P0003
                 T02170189 =
2018-07-21 11:53 METAR KAGC 211553Z 17009G16KT 10SM -RA BKN060 OVC080 23/17 A2990 RMK AO2 RAB37
                 SLP122 P0000 T02280172 =
2018-07-21 10:53 METAR KAGC 211453Z 13011G17KT 10SM FEW060 SCT090 BKN110 24/17 A2989 RMK AO2
                 SLP116 T02390172 58004 =
2018-07-21 09:53 METAR KAGC 211353Z 15006G16KT 10SM FEW049 FEW070 BKN110 23/17 A2989 RMK AO2
                 SLP118 T02280172 =
2018-07-21 08:53 METAR KAGC 211253Z 13011G19KT 10SM CLR 22/17 A2989 RMK AO2 SLP119 T02170167 =
2018-07-21 07:53 METAR KAGC 211153Z 14006KT 10SM FEW060 SCT110 21/16 A2990 RMK AO2 SLP120
                 T02060161 10217 20189 53008 =
2018-07-21 06:53 METAR KAGC 211053Z 14005KT 10SM BKN048 20/16 A2988 RMK AO2 SLP114 T02000161 =
2018-07-21 05:53 METAR KAGC 210953Z 13006KT 10SM SCT050 SCT120 19/16 A2987 RMK AO2 SLP111
                 T01940161 =
2018-07-21 04:53 METAR KAGC 210853Z 13004KT 10SM CLR 19/16 A2987 RMK AO2 SLP110 T01940161 58006 =
2018-07-21 03:53 METAR KAGC 210753Z 14003KT 10SM FEW120 20/17 A2989 RMK AO2 SLP116 T02000167 =
2018-07-21 02:53 METAR KAGC 210653Z 18006KT 10SM FEW110 21/16 A2990 RMK AO2 SLP118 T02110161 =

Support USWX by starting your Amazon purchase here.